createdAt,value
2018-12-03T00:01:34.830Z,97649.61
2018-12-03T00:04:11.542Z,97647.73
2018-12-03T00:06:41.712Z,97646.83
2018-12-03T00:09:11.809Z,97645.52
2018-12-03T00:11:41.861Z,97649.50
2018-12-03T00:14:11.766Z,97645.92
2018-12-03T00:16:41.715Z,97643.05
2018-12-03T00:19:11.695Z,97648.03
2018-12-03T00:21:57.425Z,97644.80
2018-12-03T00:24:27.357Z,97652.50
2018-12-03T00:26:57.762Z,97646.91
2018-12-03T00:29:28.091Z,97640.65
2018-12-03T00:31:58.220Z,97651.50
2018-12-03T00:34:29.054Z,97648.91
2018-12-03T00:36:59.309Z,97650.72
2018-12-03T00:39:29.583Z,97653.73
2018-12-03T00:42:07.771Z,97651.09
2018-12-03T00:44:39.127Z,97651.69
2018-12-03T00:47:10.067Z,97657.95
2018-12-03T00:49:40.675Z,97662.16
2018-12-03T00:52:10.856Z,97656.28
2018-12-03T00:54:40.784Z,97649.73
2018-12-03T00:57:11.697Z,97647.95
2018-12-03T00:59:41.885Z,97661.63
2018-12-03T01:02:30.070Z,97657.83
2018-12-03T01:05:00.159Z,97660.98
2018-12-03T01:07:30.306Z,97654.93
2018-12-03T01:10:00.241Z,97655.30
2018-12-03T01:12:30.301Z,97658.75
2018-12-03T01:15:00.340Z,97656.45
2018-12-03T01:17:30.369Z,97661.55
2018-12-03T01:20:01.340Z,97653.75
2018-12-03T01:22:36.936Z,97658.72
2018-12-03T01:25:07.175Z,97662.04
2018-12-03T01:27:37.228Z,97661.20
2018-12-03T01:30:10.699Z,97657.25
2018-12-03T01:32:41.521Z,97666.27
2018-12-03T01:35:12.139Z,97668.08
2018-12-03T01:37:42.048Z,97668.24
2018-12-03T01:40:13.898Z,97671.99
2018-12-03T01:42:45.138Z,97672.81
2018-12-03T01:45:15.225Z,97666.46
2018-12-03T01:47:45.435Z,97580.80
2018-12-03T01:50:15.650Z,97667.32
2018-12-03T01:52:45.863Z,97671.99
2018-12-03T01:55:16.113Z,97664.05
2018-12-03T01:57:46.566Z,97663.14
2018-12-03T02:00:18.953Z,97660.50
2018-12-03T02:02:49.414Z,97662.12
2018-12-03T02:05:19.765Z,97663.92
2018-12-03T02:07:49.728Z,97654.71
2018-12-03T02:10:20.082Z,97656.26
2018-12-03T06:21:27.634Z,97596.09
2018-12-03T06:24:00.288Z,97600.50
2018-12-03T06:26:30.075Z,97598.83
2018-12-03T06:28:59.630Z,97601.87
2018-12-03T06:31:31.388Z,97604.02
2018-12-03T06:34:01.912Z,97605.78
2018-12-03T06:36:31.763Z,97609.96
2018-12-03T06:39:01.341Z,97609.73
2018-12-03T06:41:31.401Z,97621.83
2018-12-03T06:45:27.056Z,97622.53
2018-12-03T06:47:58.535Z,97630.19
2018-12-03T06:50:28.148Z,97623.41
2018-12-03T06:52:57.794Z,97622.75
2018-12-03T06:55:27.199Z,97634.58
2018-12-03T06:57:56.641Z,97638.39
2018-12-03T07:00:26.521Z,97633.02
2018-12-03T07:02:56.173Z,97643.23
2018-12-03T07:05:47.634Z,97644.30
2018-12-03T07:08:19.764Z,97649.98
2018-12-03T07:10:49.122Z,97640.75
2018-12-03T07:13:22.752Z,97643.30
2018-12-03T07:15:56.531Z,97643.34
2018-12-03T07:18:27.829Z,97639.91
2018-12-03T07:20:58.410Z,97643.12
2018-12-03T07:23:28.428Z,97639.38
2018-12-03T07:32:04.487Z,97636.50
2018-12-03T07:34:33.969Z,97629.02
2018-12-03T07:37:03.480Z,97621.58
2018-12-03T07:39:34.033Z,97625.91
2018-12-03T07:42:03.699Z,97626.34
2018-12-03T07:44:34.241Z,97630.00
2018-12-03T07:47:03.959Z,97630.95
2018-12-03T07:49:35.931Z,97626.17
2018-12-03T08:01:02.507Z,97632.92
2018-12-03T08:03:32.252Z,97632.78
2018-12-03T08:06:02.137Z,97638.01
2018-12-03T08:08:31.836Z,97639.27
2018-12-03T08:11:03.888Z,97633.98
2018-12-03T08:13:35.104Z,97628.28
2018-12-03T08:16:04.603Z,97629.92
2018-12-03T08:40:44.567Z,97620.73
2018-12-03T08:59:25.574Z,97633.33
2018-12-03T09:15:19.880Z,97616.62
2018-12-03T09:33:19.523Z,97612.06
2018-12-03T09:38:41.163Z,97602.78
2018-12-03T09:41:11.546Z,97601.42
2018-12-03T09:43:44.025Z,97603.35
2018-12-03T09:46:15.591Z,97595.49
2018-12-03T09:48:45.130Z,97590.97
2018-12-03T09:51:15.862Z,97591.13
2018-12-03T09:53:45.329Z,97591.18
2018-12-03T09:56:14.736Z,97586.89
2018-12-03T09:58:44.130Z,97589.55
2018-12-03T10:01:14.151Z,97576.66
2018-12-03T10:03:45.436Z,97587.80
2018-12-03T10:06:17.497Z,97577.20
2018-12-03T10:08:46.653Z,97569.25
2018-12-03T10:11:16.286Z,97570.67
2018-12-03T10:13:46.639Z,97573.41
2018-12-03T10:16:15.893Z,97569.34
2018-12-03T10:18:49.027Z,97576.81
2018-12-03T10:21:18.410Z,97578.30
2018-12-03T10:23:47.922Z,97572.42
2018-12-03T10:26:17.887Z,97566.91
2018-12-03T10:28:47.266Z,97568.25
2018-12-03T10:31:22.846Z,97575.49
2018-12-03T10:33:52.761Z,97573.90
2018-12-03T10:36:22.441Z,97574.03
2018-12-03T10:38:52.481Z,97578.31
2018-12-03T10:41:30.502Z,97577.20
2018-12-03T10:44:01.747Z,97572.20
2018-12-03T10:46:31.057Z,97572.64
2018-12-03T10:49:07.068Z,97579.60
2018-12-03T10:51:36.490Z,97576.20
2018-12-03T10:54:07.254Z,97573.00
2018-12-03T10:56:37.115Z,97575.77
2018-12-03T10:59:06.996Z,97581.54
2018-12-03T11:01:43.864Z,97582.32
2018-12-03T11:04:18.921Z,97583.45
2018-12-03T11:06:49.086Z,97579.81
2018-12-03T11:09:18.335Z,97574.97
2018-12-03T11:11:49.448Z,97573.09
2018-12-03T11:14:20.220Z,97574.31
2018-12-03T11:16:49.736Z,97569.33
2018-12-03T11:19:18.898Z,97561.55
2018-12-03T11:21:48.887Z,97558.47
2018-12-03T11:24:18.292Z,97566.45
2018-12-03T11:26:49.726Z,97563.77
2018-12-03T11:29:20.334Z,97553.06
2018-12-03T11:31:50.393Z,97557.98
2018-12-03T11:34:24.038Z,97555.34
2018-12-03T11:36:55.720Z,97546.72
2018-12-03T11:39:42.783Z,97554.59
2018-12-03T11:42:12.535Z,97543.00
2018-12-03T11:44:41.795Z,97538.25
2018-12-03T11:47:11.142Z,97539.39
2018-12-03T11:49:40.578Z,97539.84
2018-12-03T11:52:09.840Z,97550.30
2018-12-03T11:54:39.166Z,97542.00
2018-12-03T11:57:08.810Z,97540.50
2018-12-03T11:59:38.026Z,97543.30
2018-12-03T12:02:08.885Z,97545.66
2018-12-03T12:04:38.374Z,97546.42
2018-12-03T12:07:08.167Z,97540.48
2018-12-03T12:09:37.416Z,97542.11
2018-12-03T12:12:08.666Z,97541.69
2018-12-03T12:14:39.128Z,97539.11
2018-12-03T12:17:08.444Z,97542.69
2018-12-03T12:19:37.958Z,97540.78
2018-12-03T12:22:07.811Z,97534.59
2018-12-03T12:24:37.232Z,97537.98
2018-12-03T12:27:08.349Z,97553.16
2018-12-03T12:29:38.602Z,97544.77
2018-12-03T12:32:07.975Z,97542.91
2018-12-03T12:34:37.186Z,97550.11
2018-12-03T12:37:07.146Z,97553.28
2018-12-03T12:39:36.443Z,97554.84
2018-12-03T12:42:06.608Z,97564.30
2018-12-03T12:44:36.469Z,97560.97
2018-12-03T12:47:06.904Z,97561.16
2018-12-03T12:49:36.462Z,97558.09
2018-12-03T12:52:06.640Z,97556.30
2018-12-03T12:54:37.991Z,97564.38
2018-12-03T12:57:07.329Z,97558.96
2018-12-03T12:59:36.475Z,97559.83
2018-12-03T13:02:08.130Z,97550.34
2018-12-03T13:04:37.366Z,97556.22
2018-12-03T13:07:06.750Z,97549.17
2018-12-03T13:09:35.982Z,97554.33
2018-12-03T13:12:06.200Z,97565.61
2018-12-03T13:14:37.060Z,97560.64
2018-12-03T13:17:07.399Z,97556.84
2018-12-03T13:19:37.838Z,97569.77
2018-12-03T13:22:07.681Z,97567.09
2018-12-03T13:24:37.004Z,97565.54
2018-12-03T13:27:08.153Z,97567.95
2018-12-03T13:29:37.514Z,97565.42
2018-12-03T13:32:07.505Z,97563.08
2018-12-03T13:34:38.262Z,97563.77
2018-12-03T13:37:08.309Z,97562.50
2018-12-03T13:39:37.539Z,97551.58
2018-12-03T13:42:08.728Z,97545.93
2018-12-03T13:44:38.151Z,97548.36
2018-12-03T13:47:07.770Z,97543.47
2018-12-03T13:49:37.159Z,97551.23
2018-12-03T13:52:07.118Z,97549.55
2018-12-03T13:54:36.522Z,97554.77
2018-12-03T13:57:06.189Z,97559.23
2018-12-03T13:59:35.495Z,97559.03
2018-12-03T14:02:05.299Z,97553.38
2018-12-03T14:04:44.419Z,97548.28
2018-12-03T14:07:28.475Z,97546.28
2018-12-03T14:10:17.434Z,97551.64
2018-12-03T14:13:53.490Z,97552.42
2018-12-03T14:16:27.262Z,97564.41
2018-12-03T14:19:01.067Z,97575.19
2018-12-03T14:21:43.401Z,97581.53
2018-12-03T14:24:17.633Z,97579.44
2018-12-03T14:26:47.044Z,97585.84
2018-12-03T14:29:16.881Z,97582.08
2018-12-03T14:31:46.087Z,97583.09
2018-12-03T14:34:20.749Z,97587.55
2018-12-03T14:36:50.029Z,97584.31
2018-12-03T14:39:19.875Z,97586.88
2018-12-03T14:41:49.196Z,97586.64
2018-12-03T14:44:18.424Z,97589.08
2018-12-03T14:46:48.225Z,97582.73
2018-12-03T14:49:17.617Z,97595.86
2018-12-03T14:51:47.228Z,97599.52
2018-12-03T14:54:30.770Z,97598.31
2018-12-03T14:57:02.084Z,97591.89
2018-12-03T14:59:31.651Z,97602.52
2018-12-03T15:02:01.582Z,97599.10
2018-12-03T15:04:31.920Z,97595.66
2018-12-03T15:07:01.201Z,97590.98
2018-12-03T15:09:30.423Z,97601.06
2018-12-03T15:12:01.333Z,97606.84
2018-12-03T15:14:30.514Z,97599.52
2018-12-03T15:16:59.819Z,97597.82
2018-12-03T15:19:29.296Z,97603.48
2018-12-03T15:24:54.124Z,97596.50
2018-12-03T15:27:34.150Z,97599.60
2018-12-03T15:30:05.781Z,97593.59
2018-12-03T15:32:40.443Z,97592.47
2018-12-03T15:35:12.228Z,97591.13
2018-12-03T15:37:41.961Z,97585.23
2018-12-03T15:40:16.776Z,97586.55
2018-12-03T15:42:47.944Z,97584.87
2018-12-03T15:45:21.754Z,97593.89
2018-12-03T15:47:53.453Z,97597.60
2018-12-03T15:50:23.127Z,97594.98
2018-12-03T15:52:52.934Z,97598.28
2018-12-03T15:55:23.614Z,97602.91
2018-12-03T15:57:58.052Z,97594.05
2018-12-03T16:00:35.275Z,97591.38
2018-12-03T16:03:09.376Z,97587.39
2018-12-03T16:05:42.402Z,97587.38
2018-12-03T16:08:26.526Z,97587.04
2018-12-03T16:11:04.326Z,97592.90
2018-12-03T16:13:40.374Z,97596.17
2018-12-03T16:16:10.295Z,97596.81
2018-12-03T16:18:39.558Z,97591.61
2018-12-03T16:21:09.718Z,97597.16
2018-12-03T16:23:38.901Z,97597.95
2018-12-03T16:26:08.150Z,97588.95
2018-12-03T16:28:41.789Z,97592.92
2018-12-03T16:31:11.725Z,97601.80
2018-12-03T16:33:48.578Z,97595.72
2018-12-03T16:36:19.972Z,97592.83
2018-12-03T16:38:52.267Z,97590.36
2018-12-03T16:41:22.455Z,97578.64
2018-12-03T16:43:51.675Z,97586.87
2018-12-03T16:46:20.853Z,97587.31
2018-12-03T16:48:50.457Z,97588.41
2018-12-03T16:51:19.615Z,97594.27
2018-12-03T16:53:48.778Z,97602.15
2018-12-03T16:56:17.937Z,97604.15
2018-12-03T16:58:48.161Z,97599.83
2018-12-03T17:01:17.482Z,97595.05
2018-12-03T17:03:46.687Z,97602.15
2018-12-03T17:06:16.899Z,97598.94
2018-12-03T17:08:46.582Z,97589.09
2018-12-03T17:11:15.717Z,97591.26
2018-12-03T17:13:44.930Z,97588.72
2018-12-03T17:16:14.173Z,97586.52
2018-12-03T17:18:46.016Z,97589.27
2018-12-03T17:21:47.630Z,97591.03
2018-12-03T17:24:22.658Z,97584.50
2018-12-03T17:26:52.451Z,97588.15
2018-12-03T17:30:50.791Z,97592.19
2018-12-03T17:33:20.025Z,97599.71
2018-12-03T17:35:49.269Z,97606.76
2018-12-03T17:38:18.924Z,97609.33
2018-12-03T17:40:48.789Z,97602.23
2018-12-03T17:43:17.912Z,97596.27
2018-12-03T17:45:47.891Z,97593.35
2018-12-03T17:48:17.344Z,97600.69
2018-12-03T17:50:46.824Z,97611.44
2018-12-03T17:53:15.954Z,97612.50
2018-12-03T17:55:45.142Z,97615.86
2018-12-03T17:58:14.337Z,97609.42
2018-12-03T18:00:44.507Z,97601.66
2018-12-03T18:03:13.790Z,97606.29
2018-12-03T18:05:42.987Z,97604.72
2018-12-03T18:08:12.615Z,97596.84
2018-12-03T18:10:41.973Z,97595.99
2018-12-03T18:13:11.335Z,97598.95
2018-12-03T18:15:41.973Z,97605.24
2018-12-03T18:18:11.222Z,97603.16
2018-12-03T18:20:41.186Z,97607.15
2018-12-03T18:23:10.421Z,97598.05
2018-12-03T18:25:39.701Z,97589.01
2018-12-03T18:28:09.057Z,97593.00
2018-12-03T18:37:39.314Z,97590.08
2018-12-03T18:40:10.158Z,97589.27
2018-12-03T18:42:40.534Z,97587.61
2018-12-03T18:45:10.094Z,97589.61
2018-12-03T18:47:39.358Z,97586.80
2018-12-03T18:50:15.602Z,97579.97
2018-12-03T18:52:45.800Z,97570.95
2018-12-03T18:55:14.995Z,97566.61
2018-12-03T18:57:46.630Z,97566.34
2018-12-03T19:00:16.029Z,97560.94
2018-12-03T19:02:45.197Z,97563.03
2018-12-03T19:05:14.421Z,97559.26
2018-12-03T19:07:44.059Z,97559.08
2018-12-03T19:10:13.220Z,97560.75
2018-12-03T19:12:43.457Z,97558.09
2018-12-03T19:15:12.731Z,97564.09
2018-12-03T19:17:42.516Z,97561.63
2018-12-03T19:20:12.054Z,97567.03
2018-12-03T19:22:41.980Z,97572.23
2018-12-03T19:25:11.469Z,97577.22
2018-12-03T19:27:40.841Z,97577.67
2018-12-03T19:30:12.541Z,97579.09
2018-12-03T19:32:44.781Z,97576.69
2018-12-03T19:35:32.798Z,97582.95
2018-12-03T19:38:04.535Z,97575.95
2018-12-03T19:40:34.619Z,97575.50
2018-12-03T19:43:03.872Z,97579.72
2018-12-03T19:45:33.317Z,97577.91
2018-12-03T19:48:03.297Z,97563.52
2018-12-03T19:50:32.527Z,97562.19
2018-12-03T19:53:02.042Z,97561.31
2018-12-03T19:55:32.075Z,97571.27
2018-12-03T19:58:22.467Z,97566.80
2018-12-03T20:00:51.643Z,97571.96
2018-12-03T20:03:21.718Z,97582.16
2018-12-03T20:05:50.934Z,97564.53
2018-12-03T20:08:20.438Z,97569.09
2018-12-03T20:10:49.558Z,97568.22
2018-12-03T20:13:18.837Z,97564.69
2018-12-03T20:15:48.138Z,97559.58
2018-12-03T20:18:17.358Z,97561.75
2018-12-03T20:20:50.389Z,97562.95
2018-12-03T20:23:33.602Z,97558.34
2018-12-03T20:26:26.875Z,97558.48
2018-12-03T20:29:06.166Z,97553.17
2018-12-03T20:31:52.730Z,97553.35
2018-12-03T20:34:28.366Z,97559.16
2018-12-03T20:40:00.842Z,97560.19
2018-12-03T20:42:33.488Z,97545.09
2018-12-03T20:46:10.895Z,97556.06
2018-12-03T20:51:00.001Z,97563.56
2018-12-03T20:53:38.170Z,97549.98
2018-12-03T20:56:07.449Z,97555.98
2018-12-03T20:58:36.689Z,97552.02
2018-12-03T21:01:06.035Z,97557.45
2018-12-03T21:03:35.423Z,97546.48
2018-12-03T21:06:04.765Z,97555.22
2018-12-03T21:08:33.997Z,97551.58
2018-12-03T21:11:03.176Z,97562.31
2018-12-03T21:13:33.203Z,97574.47
2018-12-03T21:16:03.693Z,97578.47
2018-12-03T21:18:32.905Z,97582.31
2018-12-03T21:21:03.939Z,97572.33
2018-12-03T21:23:33.419Z,97587.58
2018-12-03T21:26:03.292Z,97584.23
2018-12-03T21:28:32.483Z,97583.03
2018-12-03T21:31:01.647Z,97583.50
2018-12-03T21:33:30.832Z,97573.98
2018-12-03T21:36:00.255Z,97576.05
2018-12-03T21:38:29.451Z,97565.02
2018-12-03T21:40:58.667Z,97567.39
2018-12-03T21:43:27.923Z,97567.17
2018-12-03T21:45:57.134Z,97569.33
2018-12-03T21:49:55.454Z,97562.95
2018-12-03T21:52:25.047Z,97556.80
2018-12-03T21:54:54.431Z,97560.38
2018-12-03T21:57:23.555Z,97563.41
2018-12-03T21:59:56.895Z,97572.50
2018-12-03T22:02:24.242Z,97574.45
2018-12-03T22:04:53.497Z,97571.29
2018-12-03T22:07:23.178Z,97568.09
2018-12-03T22:09:52.411Z,97576.55
2018-12-03T22:12:21.660Z,97583.61
2018-12-03T22:14:50.914Z,97579.45
2018-12-03T22:17:20.394Z,97578.20
2018-12-03T22:19:49.606Z,97573.88
2018-12-03T22:22:18.927Z,97569.34
2018-12-03T22:24:48.165Z,97575.95
2018-12-03T22:27:18.186Z,97577.48
2018-12-03T22:29:47.401Z,97579.62
2018-12-03T22:32:16.579Z,97582.84
2018-12-03T22:34:45.927Z,97589.34
2018-12-03T22:37:15.072Z,97591.39
2018-12-03T22:39:46.485Z,97596.34
2018-12-03T22:42:17.185Z,97601.48
2018-12-03T22:44:46.453Z,97606.68
2018-12-03T22:47:15.607Z,97609.42
2018-12-03T22:49:44.812Z,97604.33
2018-12-03T22:52:13.973Z,97601.43
2018-12-03T22:54:43.162Z,97602.96
2018-12-03T22:57:12.924Z,97604.80
2018-12-03T22:59:42.175Z,97604.55
2018-12-03T23:02:11.339Z,97607.19
2018-12-03T23:04:40.712Z,97602.59
2018-12-03T23:07:09.871Z,97600.83
2018-12-03T23:09:39.139Z,97608.30
2018-12-03T23:12:08.409Z,97606.05
2018-12-03T23:14:37.640Z,97606.68
2018-12-03T23:17:07.086Z,97607.87
2018-12-03T23:19:36.603Z,97609.51
2018-12-03T23:22:05.902Z,97609.72
2018-12-03T23:24:35.106Z,97611.00
2018-12-03T23:27:04.755Z,97610.16
2018-12-03T23:29:33.974Z,97621.85
2018-12-03T23:32:03.177Z,97617.48
2018-12-03T23:34:32.426Z,97618.36
2018-12-03T23:37:01.605Z,97618.21
2018-12-03T23:39:30.721Z,97625.52
2018-12-03T23:41:59.929Z,97622.11
2018-12-03T23:44:29.138Z,97622.14
2018-12-03T23:46:58.610Z,97616.70
2018-12-03T23:49:27.873Z,97624.88
2018-12-03T23:51:57.132Z,97622.08
2018-12-03T23:54:26.745Z,97625.48
2018-12-03T23:56:56.562Z,97624.95
2018-12-03T23:59:26.978Z,97628.44
